createdAt,value
2022-09-24T00:00:11.943Z,22.10
2022-09-24T00:03:13.769Z,22.10
2022-09-24T00:06:15.586Z,22.10
2022-09-24T00:09:21.798Z,22.10
2022-09-24T00:12:23.557Z,22.10
2022-09-24T00:15:25.261Z,22.10
2022-09-24T00:18:26.987Z,22.10
2022-09-24T00:21:31.539Z,22.00
2022-09-24T00:24:51.931Z,22.00
2022-09-24T00:27:53.675Z,22.00
2022-09-24T00:30:58.285Z,22.00
2022-09-24T00:34:00.900Z,22.10
2022-09-24T00:37:02.921Z,22.10
2022-09-24T00:40:05.955Z,22.10
2022-09-24T00:43:25.546Z,22.10
2022-09-24T00:46:40.902Z,22.10
2022-09-24T00:49:43.454Z,22.10
2022-09-24T00:52:58.664Z,22.10
2022-09-24T00:56:02.690Z,22.10
2022-09-24T00:59:06.827Z,22.00
2022-09-24T01:02:08.646Z,22.00
2022-09-24T01:05:10.535Z,22.00
2022-09-24T01:08:17.336Z,22.00
2022-09-24T01:11:56.820Z,22.00
2022-09-24T01:15:22.019Z,22.00
2022-09-24T01:18:39.976Z,22.00
2022-09-24T01:21:56.280Z,21.90
2022-09-24T01:25:14.353Z,22.00
2022-09-24T01:28:19.631Z,22.00
2022-09-24T01:31:52.042Z,22.00
2022-09-24T01:35:09.376Z,21.90
2022-09-24T01:38:34.675Z,21.90
2022-09-24T01:41:40.633Z,21.90
2022-09-24T01:44:44.387Z,22.00
2022-09-24T01:47:47.123Z,21.90
2022-09-24T01:50:57.890Z,21.90
2022-09-24T01:54:07.177Z,21.90
2022-09-24T01:57:23.345Z,21.90
2022-09-24T02:00:26.056Z,21.90
2022-09-24T02:03:32.885Z,21.90
2022-09-24T02:06:41.810Z,21.90
2022-09-24T02:09:44.038Z,21.90
2022-09-24T02:12:52.522Z,21.90
2022-09-24T02:15:59.961Z,21.90
2022-09-24T02:19:05.122Z,21.80
2022-09-24T02:22:09.403Z,21.90
2022-09-24T02:25:15.770Z,21.90
2022-09-24T02:28:21.042Z,21.80
2022-09-24T02:31:28.724Z,21.90
2022-09-24T02:34:35.211Z,21.90
2022-09-24T02:37:42.352Z,21.80
2022-09-24T02:40:45.030Z,21.80
2022-09-24T02:43:47.434Z,21.80
2022-09-24T02:46:50.340Z,21.80
2022-09-24T02:49:52.097Z,21.80
2022-09-24T02:52:53.791Z,21.80
2022-09-24T02:55:55.810Z,21.80
2022-09-24T02:58:57.574Z,21.80
2022-09-24T03:01:59.377Z,21.80
2022-09-24T03:05:01.215Z,21.80
2022-09-24T03:08:02.945Z,21.80
2022-09-24T03:11:04.946Z,21.80
2022-09-24T03:14:06.866Z,21.80
2022-09-24T03:17:08.603Z,21.70
2022-09-24T03:20:10.317Z,21.80
2022-09-24T03:23:12.015Z,21.70
2022-09-24T03:26:14.118Z,21.80
2022-09-24T03:29:15.828Z,21.80
2022-09-24T03:32:17.567Z,21.70
2022-09-24T03:35:20.581Z,21.70
2022-09-24T03:38:22.359Z,21.80
2022-09-24T03:41:28.325Z,21.80
2022-09-24T03:44:30.100Z,21.80
2022-09-24T03:47:32.746Z,21.80
2022-09-24T03:50:38.269Z,21.70
2022-09-24T03:53:40.441Z,21.70
2022-09-24T03:56:42.964Z,21.70
2022-09-24T03:59:45.599Z,21.70
2022-09-24T04:02:47.562Z,21.70
2022-09-24T04:05:51.230Z,21.70
2022-09-24T04:08:53.324Z,21.80
2022-09-24T04:11:55.104Z,21.70
2022-09-24T04:14:57.004Z,21.70
2022-09-24T04:17:59.760Z,21.70
2022-09-24T04:21:01.763Z,21.70
2022-09-24T04:24:04.537Z,21.70
2022-09-24T04:27:06.308Z,21.70
2022-09-24T04:30:10.973Z,21.70
2022-09-24T04:33:12.677Z,21.70
2022-09-24T04:36:14.387Z,21.70
2022-09-24T04:39:16.179Z,21.70
2022-09-24T04:42:18.773Z,21.70
2022-09-24T04:45:21.659Z,21.70
2022-09-24T04:48:23.968Z,21.70
2022-09-24T04:51:25.816Z,21.60
2022-09-24T04:54:27.890Z,21.70
2022-09-24T04:57:34.856Z,21.70
2022-09-24T05:00:37.475Z,21.70
2022-09-24T05:03:39.515Z,21.60
2022-09-24T05:06:41.526Z,21.60
2022-09-24T05:09:43.219Z,21.70
2022-09-24T05:12:44.930Z,21.70
2022-09-24T05:15:46.733Z,21.60
2022-09-24T05:18:48.655Z,21.70
2022-09-24T05:21:50.361Z,21.70
2022-09-24T05:24:52.060Z,21.70
2022-09-24T05:27:55.295Z,21.70
2022-09-24T05:30:58.153Z,21.70
2022-09-24T05:33:59.914Z,21.70
2022-09-24T05:37:02.703Z,21.70
2022-09-24T05:40:24.585Z,21.70
2022-09-24T05:43:27.698Z,21.70
2022-09-24T05:46:29.522Z,21.70
2022-09-24T05:49:31.990Z,21.70
2022-09-24T05:52:33.741Z,21.70
2022-09-24T05:55:35.611Z,21.70
2022-09-24T05:58:37.330Z,21.70
2022-09-24T06:01:39.314Z,21.60
2022-09-24T06:04:41.060Z,21.70
2022-09-24T06:07:42.791Z,21.70
2022-09-24T06:10:45.740Z,21.70
2022-09-24T06:13:47.453Z,21.70
2022-09-24T06:16:49.151Z,21.70
2022-09-24T06:19:50.918Z,21.70
2022-09-24T06:22:55.963Z,21.60
2022-09-24T06:25:58.527Z,21.70
2022-09-24T06:29:04.925Z,21.60
2022-09-24T06:32:08.138Z,21.60
2022-09-24T06:35:09.842Z,21.60
2022-09-24T06:38:13.598Z,21.60
2022-09-24T06:41:15.319Z,21.60
2022-09-24T06:44:17.730Z,21.70
2022-09-24T06:47:19.463Z,21.60
2022-09-24T06:50:23.321Z,21.70
2022-09-24T06:53:25.468Z,21.70
2022-09-24T06:56:27.165Z,21.70
2022-09-24T06:59:29.447Z,21.70
2022-09-24T07:02:31.333Z,21.70
2022-09-24T07:05:38.340Z,21.70
2022-09-24T07:08:43.149Z,21.70
2022-09-24T07:11:47.867Z,21.70
2022-09-24T07:14:49.794Z,21.70
2022-09-24T07:17:57.520Z,21.70
2022-09-24T07:20:59.228Z,21.70
2022-09-24T07:24:01.057Z,21.70
2022-09-24T07:27:05.419Z,21.80
2022-09-24T07:30:08.477Z,21.80
2022-09-24T07:33:10.422Z,21.70
2022-09-24T07:36:12.123Z,21.70
2022-09-24T07:39:13.842Z,21.80
2022-09-24T07:42:15.563Z,21.80
2022-09-24T07:45:17.427Z,21.90
2022-09-24T07:48:19.273Z,21.80
2022-09-24T07:51:20.983Z,21.80
2022-09-24T07:54:22.748Z,21.80
2022-09-24T07:57:26.932Z,21.80
2022-09-24T08:00:28.646Z,21.80
2022-09-24T08:03:30.441Z,21.80
2022-09-24T08:06:38.471Z,21.70
2022-09-24T08:09:41.483Z,21.80
2022-09-24T08:12:43.209Z,21.80
2022-09-24T08:15:45.025Z,21.80
2022-09-24T08:18:47.219Z,21.80
2022-09-24T08:21:48.957Z,21.80
2022-09-24T08:24:50.743Z,21.80
2022-09-24T08:27:52.445Z,21.80
2022-09-24T08:30:59.075Z,21.80
2022-09-24T08:34:01.344Z,21.80
2022-09-24T08:37:03.964Z,21.80
2022-09-24T08:40:06.802Z,21.80
2022-09-24T08:43:19.644Z,21.80
2022-09-24T08:46:51.209Z,21.80
2022-09-24T08:50:02.917Z,21.80
2022-09-24T08:53:32.374Z,21.80
2022-09-24T08:56:37.269Z,21.90
2022-09-24T08:59:43.176Z,21.90
2022-09-24T09:03:10.017Z,21.90
2022-09-24T09:06:37.950Z,21.90
2022-09-24T09:09:42.482Z,21.90
2022-09-24T09:13:07.042Z,21.90
2022-09-24T09:16:22.290Z,21.90
2022-09-24T09:19:30.090Z,21.80
2022-09-24T09:22:39.362Z,21.80
2022-09-24T09:25:47.135Z,21.80
2022-09-24T09:28:50.067Z,21.80
2022-09-24T09:32:01.984Z,21.80
2022-09-24T09:35:03.642Z,21.90
2022-09-24T09:38:30.471Z,21.90
2022-09-24T09:42:09.469Z,21.90
2022-09-24T09:45:21.993Z,21.90
2022-09-24T09:48:35.476Z,21.90
2022-09-24T09:51:41.103Z,21.90
2022-09-24T09:54:43.443Z,21.90
2022-09-24T09:57:45.400Z,21.90
2022-09-24T10:00:49.527Z,21.90
2022-09-24T10:03:51.920Z,21.90
2022-09-24T10:07:06.091Z,21.90
2022-09-24T10:10:20.131Z,21.90
2022-09-24T10:13:22.191Z,21.90
2022-09-24T10:16:24.096Z,21.90
2022-09-24T10:19:28.587Z,21.90
2022-09-24T10:22:31.000Z,21.90
2022-09-24T10:25:35.036Z,21.90
2022-09-24T10:29:04.852Z,21.90
2022-09-24T10:32:13.313Z,22.00
2022-09-24T10:35:26.139Z,21.90
2022-09-24T10:38:28.497Z,22.00
2022-09-24T10:41:31.654Z,21.90
2022-09-24T10:44:36.734Z,22.00
2022-09-24T10:47:43.580Z,22.00
2022-09-24T10:50:55.956Z,22.00
2022-09-24T10:54:14.828Z,22.00
2022-09-24T10:57:41.689Z,22.00
2022-09-24T11:00:58.384Z,22.10
2022-09-24T11:04:26.098Z,22.10
2022-09-24T11:07:47.817Z,22.10
2022-09-24T11:11:02.558Z,22.10
2022-09-24T11:14:22.338Z,22.10
2022-09-24T11:17:39.955Z,22.10
2022-09-24T11:20:54.633Z,22.10
2022-09-24T11:24:02.730Z,22.10
2022-09-24T11:27:45.091Z,22.10
2022-09-24T11:31:08.337Z,22.10
2022-09-24T11:34:39.016Z,22.10
2022-09-24T11:37:49.529Z,22.10
2022-09-24T11:41:06.284Z,22.20
2022-09-24T11:44:22.498Z,22.10
2022-09-24T11:48:19.164Z,22.10
2022-09-24T11:51:35.895Z,22.10
2022-09-24T11:54:55.194Z,22.20
2022-09-24T11:58:15.574Z,22.10
2022-09-24T12:01:28.083Z,22.20
2022-09-24T12:05:03.432Z,22.20
2022-09-24T12:08:32.300Z,22.20
2022-09-24T12:11:47.330Z,22.20
2022-09-24T12:14:58.476Z,22.20
2022-09-24T12:18:09.137Z,22.20
2022-09-24T12:21:16.782Z,22.20
2022-09-24T12:24:39.554Z,22.20
2022-09-24T12:27:43.565Z,22.20
2022-09-24T12:31:16.124Z,22.20
2022-09-24T12:34:43.976Z,22.20
2022-09-24T12:37:48.714Z,22.20
2022-09-24T12:41:25.337Z,22.30
2022-09-24T12:44:42.500Z,22.20
2022-09-24T12:47:51.234Z,22.20
2022-09-24T12:51:01.243Z,22.30
2022-09-24T12:54:09.332Z,22.20
2022-09-24T12:57:13.830Z,22.20
2022-09-24T13:00:39.718Z,22.20
2022-09-24T13:03:46.956Z,22.30
2022-09-24T13:06:49.890Z,22.20
2022-09-24T13:09:51.640Z,22.20
2022-09-24T13:12:54.284Z,22.20
2022-09-24T13:16:18.610Z,22.20
2022-09-24T13:19:28.078Z,22.20
2022-09-24T13:22:33.457Z,22.20
2022-09-24T13:25:35.211Z,22.20
2022-09-24T13:28:50.895Z,22.20
2022-09-24T13:32:02.807Z,22.20
2022-09-24T13:35:11.894Z,22.20
2022-09-24T13:38:22.939Z,22.20
2022-09-24T13:41:52.314Z,22.20
2022-09-24T13:45:04.088Z,22.20
2022-09-24T13:48:33.846Z,22.20
2022-09-24T13:51:38.928Z,22.20
2022-09-24T13:54:52.024Z,22.20
2022-09-24T13:57:54.351Z,22.20
2022-09-24T14:00:58.377Z,22.20
2022-09-24T14:04:05.696Z,22.10
2022-09-24T14:07:07.461Z,22.10
2022-09-24T14:10:15.272Z,22.10
2022-09-24T14:13:26.216Z,22.20
2022-09-24T14:16:28.020Z,22.10
2022-09-24T14:19:29.847Z,22.10
2022-09-24T14:22:40.950Z,22.10
2022-09-24T14:25:42.878Z,22.10
2022-09-24T14:28:44.764Z,22.10
2022-09-24T14:31:52.187Z,22.10
2022-09-24T14:35:03.492Z,22.10
2022-09-24T14:38:09.559Z,22.10
2022-09-24T14:41:18.331Z,22.10
2022-09-24T14:44:24.371Z,22.10
2022-09-24T14:47:31.398Z,22.10
2022-09-24T14:50:37.393Z,22.10
2022-09-24T14:53:39.685Z,22.10
2022-09-24T14:56:41.418Z,22.10
2022-09-24T14:59:43.829Z,22.10
2022-09-24T15:02:50.974Z,22.00
2022-09-24T15:05:52.874Z,22.10
2022-09-24T15:09:23.369Z,22.10
2022-09-24T15:12:36.695Z,22.10
2022-09-24T15:15:39.853Z,22.00
2022-09-24T15:18:41.610Z,22.00
2022-09-24T15:21:45.029Z,22.00
2022-09-24T15:24:46.747Z,22.00
2022-09-24T15:27:52.632Z,22.00
2022-09-24T15:30:54.547Z,22.10
2022-09-24T15:33:56.299Z,22.00
2022-09-24T15:37:01.754Z,22.10
2022-09-24T15:40:16.691Z,22.00
2022-09-24T15:43:23.878Z,22.10
2022-09-24T15:46:26.454Z,22.00
2022-09-24T15:49:28.227Z,22.10
2022-09-24T15:52:32.651Z,22.00
2022-09-24T15:55:36.260Z,22.00
2022-09-24T15:58:38.683Z,22.00
2022-09-24T16:01:41.588Z,22.00
2022-09-24T16:04:43.449Z,22.00
2022-09-24T16:07:45.464Z,22.00
2022-09-24T16:10:47.626Z,22.00
2022-09-24T16:13:50.586Z,22.00
2022-09-24T16:16:52.602Z,22.00
2022-09-24T16:19:54.616Z,22.00
2022-09-24T16:22:56.519Z,22.10
2022-09-24T16:25:59.361Z,22.00
2022-09-24T16:29:04.970Z,22.00
2022-09-24T16:32:06.647Z,22.00
2022-09-24T16:35:11.032Z,22.00
2022-09-24T16:38:12.844Z,22.00
2022-09-24T16:41:14.674Z,22.00
2022-09-24T16:44:16.793Z,22.00
2022-09-24T16:47:20.481Z,22.00
2022-09-24T16:50:23.649Z,22.00
2022-09-24T16:53:25.529Z,22.00
2022-09-24T16:56:27.211Z,22.00
2022-09-24T16:59:29.061Z,22.00
2022-09-24T17:02:30.835Z,22.00
2022-09-24T17:05:37.833Z,22.00
2022-09-24T17:08:58.121Z,22.00
2022-09-24T17:11:59.848Z,22.00
2022-09-24T17:15:04.236Z,22.00
2022-09-24T17:18:05.961Z,22.00
2022-09-24T17:21:11.156Z,21.90
2022-09-24T17:24:16.501Z,21.90
2022-09-24T17:27:20.826Z,22.00
2022-09-24T17:30:22.613Z,22.00
2022-09-24T17:33:42.452Z,22.00
2022-09-24T17:36:44.878Z,22.00
2022-09-24T17:39:46.584Z,22.00
2022-09-24T17:42:48.252Z,22.00
2022-09-24T17:46:03.121Z,22.00
2022-09-24T17:49:05.826Z,22.00
2022-09-24T17:52:07.660Z,22.00
2022-09-24T17:55:09.436Z,22.00
2022-09-24T17:58:11.123Z,22.00
2022-09-24T18:01:37.311Z,22.00
2022-09-24T18:04:39.191Z,22.00
2022-09-24T18:07:41.463Z,22.00
2022-09-24T18:10:43.486Z,22.00
2022-09-24T18:13:49.253Z,22.00
2022-09-24T18:16:51.371Z,22.00
2022-09-24T18:19:53.095Z,22.00
2022-09-24T18:22:54.843Z,22.00
2022-09-24T18:26:10.721Z,22.00
2022-09-24T18:29:15.480Z,22.00
2022-09-24T18:32:19.295Z,21.90
2022-09-24T18:35:21.025Z,21.90
2022-09-24T18:38:22.740Z,21.90
2022-09-24T18:41:26.857Z,21.90
2022-09-24T18:44:28.556Z,21.90
2022-09-24T18:47:30.525Z,21.90
2022-09-24T18:50:32.219Z,21.90
2022-09-24T18:53:35.371Z,21.90
2022-09-24T18:56:37.289Z,21.90
2022-09-24T18:59:44.667Z,21.90
2022-09-24T19:02:46.510Z,21.90
2022-09-24T19:05:51.350Z,21.90
2022-09-24T19:08:53.224Z,21.90
2022-09-24T19:11:55.962Z,21.90
2022-09-24T19:15:00.283Z,21.90
2022-09-24T19:18:03.410Z,21.90
2022-09-24T19:21:06.809Z,21.90
2022-09-24T19:24:09.730Z,21.90
2022-09-24T19:27:11.425Z,21.90
2022-09-24T19:30:13.333Z,21.90
2022-09-24T19:33:16.884Z,21.90
2022-09-24T19:36:19.777Z,21.90
2022-09-24T19:39:21.557Z,21.90
2022-09-24T19:42:24.022Z,21.90
2022-09-24T19:45:26.739Z,21.90
2022-09-24T19:48:30.744Z,21.90
2022-09-24T19:51:33.604Z,21.90
2022-09-24T19:54:35.365Z,21.90
2022-09-24T19:57:37.092Z,21.90
2022-09-24T20:00:39.130Z,21.90
2022-09-24T20:03:40.888Z,21.90
2022-09-24T20:06:42.615Z,21.90
2022-09-24T20:09:44.322Z,21.90
2022-09-24T20:12:48.977Z,21.90
2022-09-24T20:15:58.345Z,21.90
2022-09-24T20:19:01.725Z,21.90
2022-09-24T20:22:03.596Z,21.90
2022-09-24T20:25:05.778Z,21.90
2022-09-24T20:28:10.855Z,22.00
2022-09-24T20:31:17.626Z,21.90
2022-09-24T20:34:25.685Z,21.90
2022-09-24T20:37:28.121Z,21.90
2022-09-24T20:40:29.881Z,21.90
2022-09-24T20:43:32.669Z,21.90
2022-09-24T20:46:34.488Z,21.90
2022-09-24T20:49:36.277Z,21.90
2022-09-24T20:52:37.983Z,21.90
2022-09-24T20:55:40.068Z,21.90
2022-09-24T20:58:42.224Z,21.90
2022-09-24T21:01:45.673Z,21.90
2022-09-24T21:04:47.433Z,21.90
2022-09-24T21:07:49.103Z,21.90
2022-09-24T21:11:04.204Z,21.90
2022-09-24T21:14:09.780Z,21.90
2022-09-24T21:17:11.626Z,21.90
2022-09-24T21:20:13.728Z,21.90
2022-09-24T21:23:15.466Z,21.90
2022-09-24T21:26:19.478Z,21.90
2022-09-24T21:29:21.572Z,21.90
2022-09-24T21:32:23.363Z,21.90
2022-09-24T21:35:25.079Z,21.90
2022-09-24T21:38:26.848Z,21.90
2022-09-24T21:41:33.503Z,21.90
2022-09-24T21:44:35.249Z,21.90
2022-09-24T21:47:36.987Z,21.90
2022-09-24T21:50:40.382Z,21.90
2022-09-24T21:53:42.261Z,21.90
2022-09-24T21:56:44.893Z,21.90
2022-09-24T22:00:10.043Z,21.90
2022-09-24T22:03:13.174Z,21.80
2022-09-24T22:06:15.735Z,21.80
2022-09-24T22:09:18.535Z,21.80
2022-09-24T22:12:20.416Z,21.80
2022-09-24T22:15:22.772Z,21.80
2022-09-24T22:18:24.524Z,21.90
2022-09-24T22:21:27.105Z,21.90
2022-09-24T22:24:29.020Z,21.80
2022-09-24T22:27:30.728Z,21.80
2022-09-24T22:30:32.518Z,21.80
2022-09-24T22:33:53.255Z,21.80
2022-09-24T22:36:55.007Z,21.80
2022-09-24T22:39:56.723Z,21.80
2022-09-24T22:42:58.413Z,21.80
2022-09-24T22:46:08.166Z,21.80
2022-09-24T22:49:10.852Z,21.80
2022-09-24T22:52:12.663Z,21.90
2022-09-24T22:55:14.767Z,21.80
2022-09-24T22:58:17.021Z,21.80
2022-09-24T23:01:22.468Z,21.90
2022-09-24T23:04:24.370Z,21.80
2022-09-24T23:07:26.198Z,21.80
2022-09-24T23:10:30.031Z,21.80
2022-09-24T23:13:31.779Z,21.80
2022-09-24T23:16:35.796Z,21.80
2022-09-24T23:19:49.826Z,21.80
2022-09-24T23:22:51.509Z,21.80
2022-09-24T23:25:53.310Z,21.80
2022-09-24T23:28:56.414Z,21.80
2022-09-24T23:31:58.104Z,21.80
2022-09-24T23:34:59.862Z,21.80
2022-09-24T23:38:01.529Z,21.80
2022-09-24T23:41:05.214Z,21.80
2022-09-24T23:44:07.176Z,21.80
2022-09-24T23:47:08.883Z,21.80
2022-09-24T23:50:10.591Z,21.80
2022-09-24T23:53:13.428Z,21.80
2022-09-24T23:56:15.168Z,21.70
2022-09-24T23:59:16.861Z,21.80
